Latest Weather Observations for Nullarbor

IDS60801

Issued at 8:31 am CDT Tuesday 28 March 2017 (issued every 30 minutes, with the page automatically refreshed every 10 minutes)

About weather observations | Map of weather stations | Latest weather observations for SA | Other Formats
Station Details ID: 018106 Name: NULLARBOR Lat: -31.45 Lon: 130.90 Height: 64.0 m
Data from the previous 72 hours. | See also: Recent months at Nullarbor
Date/Time
CDT
Temp
°C
App
Temp
°C
Dew
Point
°C
Rel
Hum
%
Delta-T
°C
Wind Press
QNH
hPa
Press
MSL
hPa
Rain since
9am
mm
Dir  Spd
km/h
Gust
km/h
Spd
kts
Gust
kts
28/08:00am 8.1 4.8 6.6 90 0.7 NW 13 13 7 7 1018.6 1018.4 0.0
28/07:30am 8.1 5.2 6.6 90 0.7 NW 11 13 6 7 1018.2 1018.0 0.0
28/07:00am 8.2 4.9 6.5 89 0.8 NW 13 15 7 8 1018.1 1017.9 0.0
28/06:30am 8.5 5.3 6.8 89 0.8 NW 13 13 7 7 1017.9 1017.7 0.0
28/06:00am 9.0 6.0 7.6 91 0.7 NW 13 15 7 8 1017.8 1017.6 0.0
28/05:30am 8.9 5.8 7.4 90 0.7 NNW 13 15 7 8 1017.7 1017.5 0.0
28/05:00am 9.2 7.2 7.3 88 0.9 WSW 7 9 4 5 1017.7 1017.5 0.0
28/04:30am 10.6 9.1 9.2 91 0.7 WSW 7 7 4 4 1017.9 1017.7 0.0
28/04:00am 11.0 9.7 9.1 88 0.9 SW 6 7 3 4 1018.0 1017.8 0.0
28/03:30am 10.8 9.3 8.4 85 1.2 S 6 7 3 4 1018.1 1017.9 0.0
28/03:00am 12.3 11.3 10.4 88 1.0 S 6 7 3 4 1018.2 1018.0 0.0
28/02:30am 11.3 9.9 9.6 89 0.9 S 7 9 4 5 1018.5 1018.3 0.0
28/02:00am 12.0 10.8 10.2 89 0.9 SSE 7 9 4 5 1018.8 1018.6 0.0
28/01:30am 10.9 9.1 7.8 81 1.5 S 7 9 4 5 1019.0 1018.8 0.0
28/01:00am 11.4 9.9 8.4 82 1.5 S 6 7 3 4 1019.2 1019.0 0.0
28/12:30am 13.2 11.9 9.8 80 1.7 SSW 7 9 4 5 1019.3 1019.1 0.0
28/12:00am 15.1 13.4 11.3 78 2.0 SW 11 13 6 7 1019.5 1019.3 0.0
 
Date/Time
CDT
Temp
°C
App
Temp
°C
Dew
Point
°C
Rel
Hum
%
Delta-T
°C
Wind Press
QNH
hPa
Press
MSL
hPa
Rain since
9am
mm
Dir  Spd
km/h
Gust
km/h
Spd
kts
Gust
kts
27/11:30pm 15.1 13.3 10.9 76 2.2 SSW 11 13 6 7 1019.5 1019.3 0.0
27/11:00pm 15.6 13.8 11.0 74 2.5 SSW 11 11 6 6 1019.7 1019.5 0.0
27/10:30pm 15.9 13.7 10.7 71 2.8 SW 13 13 7 7 1019.8 1019.6 0.0
27/10:00pm 16.5 15.1 11.0 70 3.0 SW 9 11 5 6 1019.7 1019.5 0.0
27/09:30pm 17.0 15.3 11.1 68 3.2 SW 11 13 6 7 1019.6 1019.4 0.0
27/09:00pm 17.1 15.6 10.7 66 3.4 SW 9 11 5 6 1019.4 1019.2 0.0
27/08:30pm 17.5 15.7 10.9 65 3.6 SW 11 11 6 6 1019.2 1019.0 0.0
27/08:00pm 18.5 16.4 11.1 62 4.0 SSW 13 17 7 9 1018.8 1018.6 0.0
27/07:30pm 19.7 16.8 10.9 57 4.8 SSW 17 22 9 12 1018.7 1018.5 0.0
27/07:00pm 20.5 17.5 10.6 53 5.4 S 17 24 9 13 1018.6 1018.4 0.0
27/06:30pm 21.3 18.2 10.2 49 6.0 SSW 17 22 9 12 1018.4 1018.2 0.0
27/06:00pm 21.4 18.0 9.3 46 6.5 SSW 17 22 9 12 1018.3 1018.1 0.0
27/05:30pm 22.3 18.5 9.8 45 6.8 SSW 20 24 11 13 1018.5 1018.3 0.0
27/05:00pm 22.2 17.9 9.4 44 6.9 SSW 22 32 12 17 1018.4 1018.2 0.0
27/04:30pm 22.5 18.2 9.3 43 7.1 S 22 33 12 18 1018.5 1018.3 0.0
27/04:00pm 22.7 17.3 8.0 39 7.7 SSW 26 37 14 20 1018.6 1018.4 0.0
27/03:30pm 23.3 18.8 10.0 43 7.3 SSW 24 33 13 18 1018.7 1018.5 0.0
27/03:00pm 22.9 17.6 9.7 43 7.2 SSW 28 39 15 21 1019.1 1018.9 0.0
27/02:30pm 22.7 17.7 9.5 43 7.1 SSW 26 39 14 21 1019.5 1019.3 0.0
27/02:00pm 23.1 17.6 10.5 45 7.0 SSW 30 37 16 20 1019.8 1019.6 0.0
27/01:30pm 23.1 17.7 10.9 46 6.8 SSW 30 39 16 21 1019.9 1019.7 0.0
27/01:00pm 22.7 17.4 9.8 44 7.0 SSW 28 39 15 21 1020.2 1020.0 0.0
27/12:30pm 22.4 17.7 10.5 47 6.5 SSW 26 37 14 20 1020.0 1019.8 0.0
27/12:00pm 22.0 16.2 9.5 45 6.7 SSW 30 41 16 22 1020.0 1019.8 0.0
27/11:30am 21.9 15.7 9.4 45 6.7 SW 32 43 17 23 1019.9 1019.7 0.0
27/11:00am 21.4 15.2 9.9 48 6.2 SW 33 48 18 26 1019.8 1019.6 0.0
27/10:30am 20.8 14.4 10.6 52 5.6 SW 35 48 19 26 1019.5 1019.3 0.0
27/10:00am 20.7 15.4 11.1 54 5.3 SW 30 41 16 22 1019.3 1019.1 0.0
27/09:30am 19.9 14.8 11.9 60 4.4 SW 30 39 16 21 1018.8 1018.6 0.0
27/09:00am 19.7 16.6 12.2 62 4.2 SW 20 26 11 14 1018.4 1018.2 0.0
27/08:30am 18.2 15.5 11.7 66 3.6 SW 17 22 9 12 1018.0 1017.8 0.0
27/08:00am 17.5 14.8 11.8 69 3.1 SW 17 20 9 11 1017.5 1017.3 0.0
27/07:30am 18.1 15.5 11.9 67 3.4 SW 17 22 9 12 1017.0 1016.8 0.0
27/07:00am 18.0 15.1 12.2 69 3.2 SW 19 22 10 12 1016.6 1016.4 0.0
27/06:30am 17.8 15.6 12.0 69 3.2 SSW 15 20 8 11 1016.1 1015.9 0.0
27/06:00am 18.3 15.3 11.8 66 3.6 SSW 19 24 10 13 1015.7 1015.5 0.0
27/05:30am 18.5 14.9 11.8 65 3.7 SSW 22 30 12 16 1015.3 1015.1 0.0
27/05:00am 18.9 15.9 12.4 66 3.6 SSW 20 28 11 15 1015.3 1015.1 0.0
27/04:30am 19.0 14.7 12.0 64 3.9 SW 26 33 14 18 1015.4 1015.2 0.0
27/04:00am 19.0 15.2 12.5 66 3.6 SW 24 33 13 18 1015.3 1015.1 0.0
27/03:30am 19.2 16.7 13.4 69 3.3 SW 19 26 10 14 1015.7 1015.5 0.0
27/03:00am 19.5 15.2 13.2 67 3.6 SW 28 37 15 20 1014.9 1014.7 0.0
27/02:30am 19.6 17.2 15.5 77 2.4 SW 22 32 12 17 1014.9 1014.7 0.0
27/02:00am 19.9 15.3 15.1 74 2.8 SSW 33 44 18 24 1014.3 1014.1 0.0
27/01:30am 20.4 18.2 16.8 80 2.2 SSW 24 32 13 17 1014.5 1014.3 0.0
27/01:00am 20.4 16.9 16.4 78 2.4 SW 30 43 16 23 1013.9 1013.7 0.0
27/12:30am 20.8 18.6 17.0 79 2.3 SW 24 39 13 21 1014.2 1014.0 0.0
27/12:00am 20.9 18.2 18.5 86 1.5 SW 30 41 16 22 1012.8 1012.6 0.0
 
Date/Time
CDT
Temp
°C
App
Temp
°C
Dew
Point
°C
Rel
Hum
%
Delta-T
°C
Wind Press
QNH
hPa
Press
MSL
hPa
Rain since
9am
mm
Dir  Spd
km/h
Gust
km/h
Spd
kts
Gust
kts
26/11:36pm 21.1 19.0 18.9 87 1.4 SW 28 35 15 19 1012.8 1012.6 0.0
26/11:30pm 21.2 18.7 18.8 86 1.5 SW 30 39 16 21 1012.7 1012.5 0.0
26/11:00pm 21.6 17.8 19.0 85 1.6 SW 37 52 20 28 1012.1 1011.9 0.0
26/10:59pm 21.6 18.2 19.0 85 1.6 SW 35 52 19 28 1012.1 1011.9 0.0
26/10:30pm 21.7 18.3 19.1 85 1.6 SW 35 46 19 25 1011.2 1011.0 0.0
26/10:00pm 22.2 18.7 18.8 81 2.1 SSW 35 57 19 31 1010.3 1010.1 0.0
26/09:55pm 22.2 18.3 18.8 81 2.1 SW 37 57 20 31 1010.0 1009.8 0.0
26/09:30pm 22.5 19.7 19.1 81 2.2 SW 32 43 17 23 1009.4 1009.2 0.0
26/09:00pm 23.0 19.5 19.6 81 2.2 SW 37 48 20 26 1008.7 1008.4 0.0
26/08:30pm 23.4 19.9 19.5 79 2.5 SW 37 46 20 25 1007.8 1007.5 0.0
26/08:00pm 23.7 21.0 19.6 78 2.6 SW 33 43 18 23 1007.2 1006.9 0.0
26/07:30pm 24.8 20.8 19.4 72 3.5 SW 39 52 21 28 1006.4 1006.2 0.0
26/07:00pm 26.4 22.4 19.3 65 4.6 SW 39 50 21 27 1005.7 1005.5 0.0
26/06:30pm 28.0 23.7 18.7 57 6.0 SW 39 50 21 27 1005.2 1005.0 0.0
26/06:00pm 29.2 24.7 18.3 51 7.0 SW 39 52 21 28 1004.7 1004.5 0.0
26/05:34pm 30.5 25.4 17.6 46 8.2 SW 41 56 22 30 1004.5 1004.3 0.0
26/05:30pm 30.6 25.5 17.7 46 8.3 SW 41 54 22 29 1004.3 1004.1 0.0
26/05:00pm 34.2 27.7 15.6 32 11.7 SW 44 57 24 31 1003.5 1003.3 0.0
26/04:53pm 35.8 30.4 15.0 29 13.0 SW 37 57 20 31 1003.2 1003.0 0.0
26/04:51pm 37.8 33.4 15.6 27 14.1 SW 33 52 18 28 1003.1 1002.9 0.0
26/04:30pm 38.3 32.8 13.5 23 15.4 SW 35 46 19 25 1002.8 1002.6 0.0
26/04:21pm 39.9 34.2 11.9 19 17.0 W 33 48 18 26 1002.8 1002.6 0.0
26/04:09pm 42.4 35.1 10.3 15 19.3 WNW 39 52 21 28 1002.7 1002.5 0.0
26/04:00pm 42.8 36.0 10.7 15 19.4 NW 37 48 20 26 1002.7 1002.5 0.0
26/03:31pm 42.7 36.1 8.4 13 20.1 NW 33 52 18 28 1002.8 1002.6 0.0
26/03:30pm 42.7 35.7 8.4 13 20.1 NW 35 52 19 28 1002.8 1002.6 0.0
26/03:10pm 43.0 35.8 7.5 12 20.5 NW 35 54 19 29 1002.8 1002.6 0.0
26/03:00pm 42.9 35.0 6.2 11 20.9 NW 37 54 20 29 1002.9 1002.7 0.0
26/02:44pm 42.8 35.0 4.7 10 21.2 NW 35 57 19 31 1003.1 1002.9 0.0
26/02:30pm 43.2 34.0 3.5 9 21.8 NNW 41 57 22 31 1003.2 1003.0 0.0
26/02:18pm 42.9 34.0 3.3 9 21.6 NNW 39 59 21 32 1003.4 1003.2 0.0
26/02:14pm 42.0 32.6 2.6 9 21.1 NNW 41 56 22 30 1003.5 1003.3 0.0
26/02:00pm 43.0 33.4 3.4 9 21.6 NNW 43 61 23 33 1003.6 1003.4 0.0
26/01:55pm 42.3 32.4 2.8 9 21.3 NNW 44 61 24 33 1003.8 1003.6 0.0
26/01:37pm 41.9 32.2 2.6 9 21.1 NNW 43 57 23 31 1004.3 1004.1 0.0
26/01:30pm 41.9 32.0 2.6 9 21.1 N 44 57 24 31 1004.5 1004.3 0.0
26/01:27pm 41.6 31.6 2.3 9 20.9 N 44 57 24 31 1004.5 1004.3 0.0
26/01:22pm 41.4 31.4 2.2 9 20.8 NNW 44 57 24 31 1004.6 1004.4 0.0
26/01:07pm 40.8 30.6 3.2 10 20.2 N 46 59 25 32 1004.8 1004.6 0.0
26/01:00pm 40.7 30.9 3.1 10 20.2 N 44 57 24 31 1004.8 1004.6 0.0
26/12:43pm 40.5 31.5 4.3 11 19.8 N 41 61 22 33 1005.2 1005.0 0.0
26/12:30pm 39.6 30.5 6.1 13 18.8 N 43 56 23 30 1005.4 1005.2 0.0
26/12:00pm 38.6 30.4 8.3 16 17.4 N 41 59 22 32 1006.0 1005.8 0.0
26/11:53am 37.7 29.4 7.6 16 17.0 N 41 59 22 32 1006.2 1006.0 0.0
26/11:30am 36.3 29.3 9.8 20 15.4 N 37 46 20 25 1006.7 1006.5 0.0
26/11:00am 33.6 27.8 10.9 25 13.3 N 32 41 17 22 1007.2 1006.9 0.0
26/10:30am 30.4 27.2 13.2 35 10.3 NNE 22 32 12 17 1007.5 1007.2 0.0
26/10:00am 27.0 24.8 14.4 46 7.6 NNE 19 24 10 13 1007.8 1007.5 0.0
26/09:30am 24.9 23.8 15.2 54 5.9 NE 15 17 8 9 1007.8 1007.5 0.0
26/09:00am 22.8 23.8 16.8 69 3.7 ESE 7 9 4 5 1007.9 1007.6 0.0
26/08:30am 21.3 22.0 17.1 77 2.6 ENE 9 15 5 8 1007.9 1007.6 0.0
26/08:00am 18.6 18.5 14.9 79 2.2 E 9 13 5 7 1008.0 1007.7 0.0
26/07:30am 18.7 18.6 15.0 79 2.2 SE 9 11 5 6 1007.8 1007.5 0.0
26/07:00am 19.4 19.3 15.9 80 2.1 SSE 11 13 6 7 1007.5 1007.2 0.0
26/06:30am 21.5 20.0 15.3 68 3.7 ENE 17 19 9 10 1007.4 1007.1 0.0
26/06:00am 20.6 20.1 14.9 70 3.4 SSE 11 15 6 8 1007.5 1007.2 0.0
26/05:30am 22.1 20.2 15.7 67 3.9 NE 20 32 11 17 1007.4 1007.1 0.0
26/05:00am 19.9 20.0 15.5 76 2.6 ESE 9 17 5 9 1007.6 1007.3 0.0
26/04:30am 19.2 18.6 15.7 80 2.1 NE 13 15 7 8 1007.3 1007.0 0.0
26/04:00am 19.7 19.6 16.0 79 2.2 ENE 11 13 6 7 1007.9 1007.6 0.0
26/03:30am 19.4 17.9 16.2 82 1.9 ENE 19 24 10 13 1007.9 1007.6 0.0
26/03:00am 18.7 18.0 16.3 86 1.4 ENE 15 19 8 10 1008.4 1008.1 0.0
26/02:30am 19.3 18.6 16.5 84 1.7 E 15 19 8 10 1008.9 1008.6 0.0
26/02:00am 19.9 18.6 16.9 83 1.8 E 19 24 10 13 1009.4 1009.2 0.0
26/01:30am 20.2 18.5 18.0 87 1.4 E 24 28 13 15 1009.9 1009.7 0.0
26/01:00am 20.1 18.8 18.2 89 1.2 ESE 22 28 12 15 1010.2 1010.0 0.0
26/12:30am 20.2 18.9 18.1 88 1.3 ESE 22 28 12 15 1010.6 1010.4 0.0
26/12:00am 20.3 19.4 18.1 87 1.4 ESE 20 28 11 15 1011.0 1010.8 0.0
 
Date/Time
CDT
Temp
°C
App
Temp
°C
Dew
Point
°C
Rel
Hum
%
Delta-T
°C
Wind Press
QNH
hPa
Press
MSL
hPa
Rain since
9am
mm
Dir  Spd
km/h
Gust
km/h
Spd
kts
Gust
kts
25/11:30pm 20.5 19.2 18.1 86 1.5 ESE 22 30 12 16 1011.4 1011.2 0.0
25/11:00pm 20.7 19.0 18.1 85 1.6 SE 24 32 13 17 1011.8 1011.6 0.0
25/10:30pm 20.7 19.1 18.3 86 1.5 ESE 24 32 13 17 1011.9 1011.7 0.0
25/10:00pm 20.7 19.2 18.5 87 1.4 SE 24 33 13 18 1011.8 1011.6 0.0
25/09:30pm 20.6 19.1 18.5 88 1.3 SE 24 32 13 17 1011.8 1011.6 0.0
25/09:00pm 20.7 18.9 18.8 89 1.2 SE 26 33 14 18 1011.3 1011.1 0.0
25/08:30pm 21.1 19.4 18.9 87 1.4 SE 26 35 14 19 1011.2 1011.0 0.0
25/08:00pm 21.1 18.1 19.0 88 1.3 ESE 33 43 18 23 1010.2 1010.0 0.0
25/07:30pm 21.3 18.9 19.0 87 1.5 SE 30 39 16 21 1011.2 1011.0 0.0
25/07:00pm 22.2 20.2 19.2 83 1.9 SE 28 37 15 20 1011.4 1011.2 0.0
25/06:30pm 22.6 20.5 19.0 80 2.3 SSE 28 35 15 19 1011.7 1011.5 0.0
25/06:00pm 22.6 20.4 18.6 78 2.5 SSE 28 37 15 20 1011.7 1011.5 0.0
25/05:30pm 22.9 20.7 18.7 77 2.7 SSE 28 33 15 18 1011.7 1011.5 0.0
25/05:00pm 23.6 21.3 18.5 73 3.2 SE 28 35 15 19 1011.2 1011.0 0.0
25/04:30pm 24.1 21.0 18.5 71 3.5 SSE 32 37 17 20 1011.3 1011.1 0.0
25/04:00pm 24.2 21.0 18.2 69 3.8 SSE 32 37 17 20 1011.5 1011.3 0.0
25/03:30pm 24.2 22.2 18.4 70 3.7 SSE 26 32 14 17 1011.5 1011.3 0.0
25/03:00pm 24.1 22.1 18.3 70 3.7 SE 26 32 14 17 1011.7 1011.5 0.0
25/02:30pm 24.6 23.1 18.5 69 3.9 SE 24 30 13 16 1012.3 1012.1 0.0
25/02:00pm 24.9 23.5 18.8 69 3.9 SE 24 30 13 16 1012.8 1012.6 0.0
25/01:30pm 24.7 22.8 18.6 69 3.9 SE 26 32 14 17 1013.3 1013.1 0.0
25/01:00pm 24.8 23.7 18.7 69 3.9 SE 22 28 12 15 1013.6 1013.4 0.0
25/12:30pm 24.5 24.1 18.9 71 3.6 SE 19 24 10 13 1014.1 1013.9 0.0
25/12:00pm 24.0 23.8 19.3 75 3.0 ESE 19 22 10 12 1014.5 1014.3 0.0
25/11:30am 23.1 22.9 19.3 79 2.4 SE 19 22 10 12 1014.6 1014.4 0.0
25/11:00am 23.0 22.9 19.6 81 2.2 SSE 19 24 10 13 1014.4 1014.2 0.0
25/10:30am 22.8 22.5 19.6 82 2.1 S 20 26 11 14 1014.7 1014.5 0.0
25/10:00am 22.5 23.0 20.8 90 1.1 S 19 24 10 13 1014.6 1014.4 0.0
25/09:30am 21.5 23.1 21.5 100 0.0 S 15 19 8 10 1014.6 1014.4 0.0
25/09:00am 20.7 21.9 20.7 100 0.0 SSE 15 20 8 11 1014.0 1013.8 0.0
25/08:39am 20.3 21.7 20.3 100 0.0 SSE 13 15 7 8 1014.1 1013.9 0.0

Other Formats:

Comma delimited format used in spreadsheet applications
http://www.bom.gov.au/fwo/IDS60801/IDS60801.94651.axf

JavaScript Object Notation format (JSON) in row-major order
http://www.bom.gov.au/fwo/IDS60801/IDS60801.94651.json